Time;durP1;ratioP1;P1;durP2;ratioP2;P2;SDS_P1;SDS_P2;PMS_P1;PMS_P2;Temp;Humidity;BMP_temperature;BMP_pressure;BME280_temperature;BME280_humidity;BME280_pressure;Samples;Min_cycle;Max_cycle;Signal;HPM_P1;HPM_P2
2022/11/29 00:00:08;;;;;;;;;65.33;46.67;;;;;0.95;100.00;100261.78;6267684;20;2869918;-68
2022/11/29 00:02:38;;;;;;;;;62.00;45.33;;;;;1.20;100.00;100268.47;6301947;20;2875526;-68
2022/11/29 00:05:07;;;;;;;;;56.00;42.00;;;;;0.92;100.00;100254.75;6297244;20;2853442;-68
2022/11/29 00:07:36;;;;;;;;;69.00;47.00;;;;;0.70;100.00;100256.81;6267362;20;2881565;-68
2022/11/29 00:10:07;;;;;;;;;65.67;45.00;;;;;0.89;100.00;100257.44;6301574;20;3627529;-68
2022/11/29 00:12:36;;;;;;;;;65.00;47.50;;;;;0.68;100.00;100252.44;6305827;20;2863363;-68
2022/11/29 00:15:05;;;;;;;;;66.67;48.33;;;;;0.72;100.00;100254.16;6273136;20;2875464;-68
2022/11/29 00:17:35;;;;;;;;;47.33;26.33;;;;;0.76;100.00;100246.16;6300708;20;2877384;-68
2022/11/29 00:20:04;;;;;;;;;42.50;27.50;;;;;0.73;100.00;100245.31;6312670;20;2483510;-66
2022/11/29 00:22:33;;;;;;;;;56.00;37.00;;;;;0.59;100.00;100251.66;6299696;20;2864904;-68
2022/11/29 00:25:00;;;;;;;;;60.50;38.50;;;;;0.47;100.00;100237.69;6296150;20;2500353;-67
2022/11/29 00:27:30;;;;;;;;;67.33;43.67;;;;;0.58;100.00;100241.09;6298449;20;2894177;-67
2022/11/29 00:29:58;;;;;;;;;45.50;31.50;;;;;0.45;100.00;100240.38;6329715;20;2487822;-68
2022/11/29 00:32:27;;;;;;;;;52.50;39.50;;;;;0.63;100.00;100242.81;6299921;20;2873270;-67
2022/11/29 00:34:56;;;;;;;;;35.00;24.50;;;;;0.50;100.00;100237.66;6296763;20;2863871;-68
2022/11/29 00:37:27;;;;;;;;;67.00;41.50;;;;;0.43;100.00;100231.59;6301691;20;2878417;-68
2022/11/29 00:39:55;;;;;;;;;58.50;40.50;;;;;0.51;100.00;100235.03;6295771;20;2857504;-67
2022/11/29 00:42:24;;;;;;;;;46.33;35.67;;;;;0.47;100.00;100249.13;6301694;20;3587792;-68
2022/11/29 00:44:52;;;;;;;;;48.50;28.00;;;;;0.40;100.00;100235.16;6332130;20;2841961;-68
2022/11/29 00:47:21;;;;;;;;;54.50;40.00;;;;;0.27;100.00;100225.59;6299261;20;2883685;-67
2022/11/29 00:49:48;;;;;;;;;69.50;44.00;;;;;0.49;100.00;100226.22;6295534;20;2487780;-68
2022/11/29 00:52:17;;;;;;;;;57.33;26.33;;;;;0.28;100.00;100218.56;6301862;20;2889908;-67
2022/11/29 00:54:46;;;;;;;;;45.33;34.00;;;;;0.14;100.00;100214.31;6329427;20;2868970;-67
2022/11/29 00:57:15;;;;;;;;;60.50;39.50;;;;;0.30;100.00;100214.13;6329096;20;2876358;-67
2022/11/29 00:59:44;;;;;;;;;52.00;33.00;;;;;0.41;100.00;100212.25;6299476;20;2880717;-68
2022/11/29 01:02:12;;;;;;;;;55.00;39.00;;;;;0.26;100.00;100208.00;6297905;20;2858640;-68
2022/11/29 01:04:41;;;;;;;;;56.00;41.00;;;;;0.57;100.00;100213.78;6329042;20;2859550;-68
2022/11/29 01:07:12;;;;;;;;;65.00;45.67;;;;;0.39;100.00;100209.59;6299371;20;2874274;-68
2022/11/29 01:09:39;;;;;;;;;44.50;31.00;;;;;0.32;100.00;100201.78;6329205;20;2866903;-67
2022/11/29 01:12:09;;;;;;;;;61.00;40.33;;;;;0.35;100.00;100207.03;6296989;20;2876449;-68
2022/11/29 01:14:38;;;;;;;;;54.00;38.50;;;;;0.47;100.00;100209.50;6330054;20;2870004;-68
2022/11/29 01:17:05;;;;;;;;;65.50;39.50;;;;;0.39;100.00;100214.03;6296337;20;2864955;-67
2022/11/29 01:19:36;;;;;;;;;50.00;35.00;;;;;0.41;100.00;100206.97;6299273;20;2868003;-68
2022/11/29 01:22:05;;;;;;;;;65.67;40.33;;;;;0.24;100.00;100216.81;6296540;20;2887726;-68
2022/11/29 01:24:33;;;;;;;;;42.00;25.00;;;;;0.05;100.00;100203.81;6327954;20;2848086;-68
2022/11/29 01:27:01;;;;;;;;;45.00;34.00;;;;;0.25;100.00;100208.03;6298979;20;2866893;-68
2022/11/29 01:29:31;;;;;;;;;67.67;45.00;;;;;0.36;100.00;100198.22;6298501;20;2878416;-67
2022/11/29 01:31:59;;;;;;;;;59.50;41.00;;;;;0.27;100.00;100206.25;6323832;20;2500268;-68
2022/11/29 01:34:26;;;;;;;;;63.50;41.50;;;;;0.19;100.00;100199.28;6295308;20;2489880;-68
2022/11/29 01:36:55;;;;;;;;;54.00;41.00;;;;;0.27;100.00;100199.19;6297025;20;2869186;-67
2022/11/29 01:39:23;;;;;;;;;61.00;41.00;;;;;0.48;100.00;100198.06;6297087;20;2500195;-68
2022/11/29 01:41:51;;;;;;;;;63.33;38.00;;;;;0.16;100.00;100194.03;6295417;20;3643058;-68
2022/11/29 01:44:21;;;;;;;;;48.00;35.00;;;;;0.36;100.00;100187.66;6329195;20;2880450;-67
2022/11/29 01:46:49;;;;;;;;;47.00;38.00;;;;;0.25;100.00;100173.72;6327982;20;2855547;-68
2022/11/29 01:49:37;;;;;;;;;62.50;45.50;;;;;0.26;100.00;100186.00;6298791;20;2867906;-67
2022/11/29 01:52:24;;;;;;;;;52.50;40.00;;;;;0.53;100.00;100190.09;6295719;20;2851347;-68
2022/11/29 01:55:01;;;;;;;;;64.67;41.33;;;;;0.26;100.00;100186.00;6297361;20;2888847;-68
2022/11/29 01:57:30;;;;;;;;;46.00;19.00;;;;;0.16;100.00;100190.53;6325143;20;2864912;-68
2022/11/29 02:00:09;;;;;;;;;44.50;28.50;;;;;0.16;100.00;100178.19;6292356;20;2500229;-67
2022/11/29 02:02:52;;;;;;;;;35.00;35.00;;;;;0.14;100.00;100177.34;6297467;20;3584732;-68
2022/11/29 02:05:22;;;;;;;;;60.00;40.00;;;;;0.42;100.00;100184.91;6296033;20;2856503;-67
2022/11/29 02:07:56;;;;;;;;;58.00;40.00;;;;;0.28;100.00;100185.09;6296717;20;2878601;-68
2022/11/29 02:11:08;;;;;;;;;56.00;41.00;;;;;0.24;100.00;100182.50;6328446;20;2867566;-67
2022/11/29 02:14:25;;;;;;;;;41.50;25.50;;;;;0.19;100.00;100190.50;6299268;20;2846199;-67
2022/11/29 02:17:29;;;;;;;;;67.00;42.00;;;;;0.36;100.00;100187.66;6299901;20;2889050;-67
2022/11/29 02:21:02;;;;;;;;;59.50;42.50;;;;;0.21;100.00;100186.94;6329487;20;2866890;-67
2022/11/29 02:24:10;;;;;;;;;69.00;45.00;;;;;0.30;100.00;100183.31;6298381;20;2889975;-68
2022/11/29 02:27:00;;;;;;;;;62.00;42.50;;;;;0.49;100.00;100189.25;6328171;20;2862872;-68
2022/11/29 02:30:02;;;;;;;;;65.67;41.00;;;;;0.36;100.00;100192.94;6297010;20;2859598;-68
2022/11/29 02:32:43;;;;;;;;;60.33;41.67;;;;;0.36;100.00;100195.56;6331065;20;2875328;-67
2022/11/29 02:35:50;;;;;;;;;52.50;40.00;;;;;0.34;100.00;100189.44;6328383;20;2879676;-68
2022/11/29 02:38:59;;;;;;;;;51.50;38.50;;;;;0.56;100.00;100190.94;6296350;20;2858879;-68
2022/11/29 02:41:29;;;;;;;;;47.50;38.00;;;;;0.62;100.00;100190.84;6294930;20;2500215;-68
2022/11/29 02:44:11;;;;;;;;;69.50;41.50;;;;;0.51;100.00;100194.53;6294983;20;2876250;-67
2022/11/29 02:47:08;;;;;;;;;55.67;39.00;;;;;0.58;100.00;100191.78;6297334;20;3639812;-67
2022/11/29 02:49:47;;;;;;;;;50.00;42.00;;;;;0.35;100.00;100186.78;6326902;20;2500302;-67
2022/11/29 02:52:49;;;;;;;;;62.00;43.00;;;;;0.44;100.00;100189.28;6296622;20;2872133;-67
2022/11/29 02:55:51;;;;;;;;;56.50;42.00;;;;;0.44;100.00;100199.84;6322630;20;2500220;-67
2022/11/29 02:59:05;;;;;;;;;55.67;38.33;;;;;0.45;100.00;100192.84;6297288;20;2882669;-67
2022/11/29 03:02:30;;;;;;;;;48.50;38.00;;;;;0.27;100.00;100203.63;6328144;20;2874114;-67
2022/11/29 03:05:28;;;;;;;;;51.50;32.00;;;;;0.11;100.00;100198.50;6295480;20;2883751;-67
2022/11/29 03:08:45;;;;;;;;;61.50;33.50;;;;;0.41;100.00;100202.53;6299188;20;2855532;-67
2022/11/29 03:11:37;;;;;;;;;49.00;33.33;;;;;0.38;100.00;100207.88;6295957;20;2877353;-67
2022/11/29 03:14:24;;;;;;;;;68.00;46.67;;;;;0.46;100.00;100209.56;6325875;20;2891975;-67
2022/11/29 03:17:16;;;;;;;;;59.00;43.00;;;;;0.43;100.00;100210.47;6325637;20;2866839;-67
2022/11/29 03:20:34;;;;;;;;;59.67;41.33;;;;;0.43;100.00;100215.75;6294858;20;2866877;-67
2022/11/29 03:23:27;;;;;;;;;56.00;44.00;;;;;0.58;100.00;100212.03;6325546;20;2860731;-67
2022/11/29 03:26:35;;;;;;;;;51.00;44.00;;;;;0.44;100.00;100207.78;6293852;20;2500308;-67
2022/11/29 03:29:26;;;;;;;;;33.83;20.67;;;;;0.33;100.00;100200.91;6317626;20;2844051;-67
2022/11/29 03:32:50;;;;;;;;;56.50;41.50;;;;;0.43;100.00;100216.63;6324979;20;2873149;-67
2022/11/29 03:36:29;;;;;;;;;39.50;33.50;;;;;0.35;100.00;100202.63;6294729;20;2857586;-67
2022/11/29 03:39:06;;;;;;;;;56.00;30.50;;;;;0.07;100.00;100214.38;6294574;20;2876347;-67
2022/11/29 03:41:56;;;;;;;;;57.67;38.00;;;;;0.30;100.00;100219.41;6290976;20;3631535;-67
2022/11/29 03:44:44;;;;;;;;;64.00;44.50;;;;;0.21;100.00;100220.38;6322709;20;2487735;-67
2022/11/29 03:47:23;;;;;;;;;72.00;41.00;;;;;0.27;100.00;100225.59;6293599;20;2483518;-67
2022/11/29 03:50:04;;;;;;;;;61.50;35.00;;;;;0.20;100.00;100229.19;6295780;20;2484488;-67
2022/11/29 03:52:53;;;;;;;;;68.00;48.00;;;;;0.30;100.00;100224.69;6292445;20;2498086;-67
2022/11/29 03:55:47;;;;;;;;;61.50;46.00;;;;;0.25;100.00;100232.66;6297932;20;2863716;-66
2022/11/29 03:58:52;;;;;;;;;61.00;46.50;;;;;0.37;100.00;100226.34;6302927;20;2854487;-67
2022/11/29 04:01:46;;;;;;;;;65.00;45.00;;;;;0.31;100.00;100223.81;6299090;20;2874266;-67
2022/11/29 04:05:26;;;;;;;;;61.50;40.50;;;;;0.31;100.00;100223.81;6330536;20;2500313;-66
2022/11/29 04:08:41;;;;;;;;;39.33;16.17;;;;;0.11;100.00;100224.03;6324607;20;3592100;-67
2022/11/29 04:11:53;;;;;;;;;58.00;42.50;;;;;0.08;100.00;100234.59;6296016;20;2500372;-67
2022/11/29 04:15:00;;;;;;;;;58.50;37.00;;;;;0.10;100.00;100232.81;6302939;20;2875297;-67
2022/11/29 04:18:23;;;;;;;;;47.00;26.00;;;;;0.19;100.00;100222.19;6301911;20;2787719;-67
2022/11/29 04:21:05;;;;;;;;;53.50;38.00;;;;;0.39;100.00;100229.88;6297107;20;2872110;-67
2022/11/29 04:24:25;;;;;;;;;43.50;30.50;;;;;0.37;100.00;100236.94;6298948;20;2495032;-66
2022/11/29 04:28:27;;;;;;;;;61.50;41.50;;;;;0.57;100.00;100245.50;6295170;20;2487688;-67
2022/11/29 04:31:30;;;;;;;;;68.00;51.50;;;;;0.65;100.00;100235.72;6294261;20;2873125;-66
2022/11/29 04:34:32;;;;;;;;;62.00;43.00;;;;;0.38;100.00;100234.28;6300372;20;2880474;-67
2022/11/29 04:38:16;;;;;;;;;56.50;44.00;;;;;0.61;100.00;100235.78;6295345;20;2489854;-67
2022/11/29 04:41:25;;;;;;;;;58.00;44.50;;;;;0.61;100.00;100236.66;6296766;20;2863769;-67
2022/11/29 04:44:39;;;;;;;;;60.33;47.67;;;;;0.38;100.00;100241.34;6294791;20;2862683;-67
2022/11/29 04:47:54;;;;;;;;;62.50;44.00;;;;;0.58;100.00;100242.00;6332056;20;2875353;-67
2022/11/29 04:51:07;;;;;;;;;71.67;45.67;;;;;0.44;100.00;100241.25;6298601;20;2892169;-67
2022/11/29 04:54:25;;;;;;;;;64.67;42.33;;;;;0.42;100.00;100236.00;6329196;20;2887874;-67
2022/11/29 04:57:17;;;;;;;;;51.67;32.67;;;;;0.27;100.00;100245.88;6326340;20;2878484;-67
2022/11/29 05:00:18;;;;;;;;;66.00;44.67;;;;;0.38;100.00;100255.41;6326643;20;3633558;-67
2022/11/29 05:03:01;;;;;;;;;37.67;23.00;;;;;0.29;100.00;100254.63;6330586;20;2867046;-67
2022/11/29 05:06:16;;;;;;;;;49.50;41.00;;;;;0.44;100.00;100259.75;6330473;20;2871200;-67
2022/11/29 05:09:24;;;;;;;;;68.00;48.00;;;;;0.55;100.00;100263.13;6278532;20;2871224;-68
2022/11/29 05:12:37;;;;;;;;;53.00;42.00;;;;;0.43;100.00;100255.38;6298888;20;2500257;-66
2022/11/29 05:15:40;;;;;;;;;57.00;25.33;;;;;0.29;100.00;100254.63;6269899;20;2887934;-67
2022/11/29 05:18:57;;;;;;;;;107.50;76.00;;;;;0.39;100.00;100254.50;6296365;20;1949253;-67
2022/11/29 05:22:18;;;;;;;;;117.67;87.33;;;;;0.29;100.00;100254.63;6268479;20;3691906;-66
2022/11/29 05:25:55;;;;;;;;;87.67;54.33;;;;;0.32;100.00;100260.78;6272068;20;3659661;-67
2022/11/29 05:29:02;;;;;;;;;76.00;53.67;;;;;0.30;100.00;100262.53;6301452;20;2886856;-67
2022/11/29 05:32:36;;;;;;;;;98.67;69.67;;;;;0.43;100.00;100255.38;6301170;20;3678440;-66
2022/11/29 05:35:42;;;;;;;;;84.00;55.67;;;;;0.61;100.00;100256.94;6299719;20;3656686;-67
2022/11/29 05:38:36;;;;;;;;;89.67;60.00;;;;;0.71;100.00;100257.66;6301798;20;3660732;-67
2022/11/29 05:41:41;;;;;;;;;87.00;60.67;;;;;0.71;100.00;100252.38;6305716;20;3647582;-66
2022/11/29 05:44:41;;;;;;;;;82.33;54.67;;;;;0.69;100.00;100254.19;6302008;20;3654611;-67
2022/11/29 05:47:25;;;;;;;;;92.00;59.00;;;;;0.69;100.00;100254.19;6300341;20;3678537;-66
2022/11/29 05:50:22;;;;;;;;;79.67;47.00;;;;;0.63;100.00;100256.03;6268904;20;2900446;-67
2022/11/29 05:53:33;;;;;;;;;94.67;62.67;;;;;0.87;100.00;100261.91;6303577;20;3645116;-67
2022/11/29 05:56:22;;;;;;;;;84.00;53.00;;;;;1.13;100.00;100263.31;6298717;20;3651318;-66
2022/11/29 05:59:17;;;;;;;;;89.33;55.67;;;;;0.57;100.00;100266.63;6303752;20;3667998;-67
2022/11/29 06:02:28;;;;;;;;;94.33;56.67;;;;;0.61;100.00;100268.38;6265412;20;3660676;-67
2022/11/29 06:05:05;;;;;;;;;68.00;49.67;;;;;0.83;100.00;100268.09;6301222;20;3637771;-67
2022/11/29 06:07:50;;;;;;;;;85.00;55.33;;;;;0.64;100.00;100263.03;6301275;20;3666956;-66
2022/11/29 06:10:33;;;;;;;;;95.33;62.67;;;;;0.74;100.00;100257.63;6299246;20;3654536;-67
2022/11/29 06:13:18;;;;;;;;;75.00;35.00;;;;;0.83;100.00;100268.09;6262777;20;2491950;-67
2022/11/29 06:16:13;;;;;;;;;100.00;61.00;;;;;0.71;100.00;100269.16;6270352;20;3675257;-66
2022/11/29 06:19:18;;;;;;;;;79.50;53.50;;;;;0.76;100.00;100266.41;6272275;20;3523216;-67
2022/11/29 06:22:40;;;;;;;;;89.33;60.33;;;;;0.93;100.00;100264.44;6299015;20;3652397;-67
2022/11/29 06:25:34;;;;;;;;;78.00;45.50;;;;;1.03;100.00;100271.38;6270844;20;2873205;-68
2022/11/29 06:28:47;;;;;;;;;91.00;59.00;;;;;0.92;100.00;100272.38;6269332;20;3645081;-67
2022/11/29 06:31:31;;;;;;;;;79.33;53.67;;;;;1.01;100.00;100272.28;6301339;20;3648188;-67
2022/11/29 06:34:16;;;;;;;;;86.33;60.33;;;;;1.05;100.00;100273.97;6300710;20;3660778;-67
2022/11/29 06:37:39;;;;;;;;;89.00;56.67;;;;;0.97;100.00;100282.00;6299665;20;3654428;-67
2022/11/29 06:40:15;;;;;;;;;84.33;58.00;;;;;0.81;100.00;100283.97;6299952;20;3647150;-66
2022/11/29 06:42:44;;;;;;;;;77.67;58.00;;;;;0.99;100.00;100280.22;6299274;20;3631531;-67
2022/11/29 06:45:15;;;;;;;;;76.67;54.33;;;;;1.15;100.00;100280.03;6302323;20;3643065;-67
2022/11/29 06:47:54;;;;;;;;;82.67;57.33;;;;;0.96;100.00;100277.63;6300865;20;3640889;-67
2022/11/29 06:51:14;;;;;;;;;79.33;56.33;;;;;0.78;100.00;100278.72;6297631;20;3645062;-67
2022/11/29 06:54:06;;;;;;;;;77.33;55.00;;;;;0.88;100.00;100276.84;6301262;20;3644041;-67
2022/11/29 06:56:54;;;;;;;;;80.67;57.00;;;;;1.06;100.00;100281.91;6301345;20;3650273;-67
2022/11/29 06:59:33;;;;;;;;;71.33;43.67;;;;;0.90;100.00;100285.66;6301932;20;2878370;-67
2022/11/29 07:02:45;;;;;;;;;72.67;52.33;;;;;0.90;100.00;100285.66;6301511;20;3620126;-67
2022/11/29 07:05:30;;;;;;;;;73.67;52.67;;;;;1.03;100.00;100284.59;6297925;20;2884793;-67
2022/11/29 07:08:14;;;;;;;;;81.33;57.33;;;;;1.23;100.00;100286.09;6302043;20;3649250;-66
2022/11/29 07:10:48;;;;;;;;;79.33;51.67;;;;;1.28;100.00;100286.88;6299523;20;3639885;-67
2022/11/29 07:13:19;;;;;;;;;75.33;49.67;;;;;1.20;100.00;100286.13;6299976;20;3648130;-67
2022/11/29 07:17:18;;;;;;;;;91.67;71.33;;;;;0.99;100.00;100289.94;6304271;20;3653419;-67
2022/11/29 07:20:07;;;;;;;;;93.33;62.00;;;;;1.35;100.00;100298.28;6296569;20;3653394;-67
2022/11/29 07:23:36;;;;;;;;;78.00;56.33;;;;;1.22;100.00;100295.78;6304661;20;3640956;-67
2022/11/29 07:26:42;;;;;;;;;73.67;52.67;;;;;1.40;100.00;100297.31;6301722;20;3639864;-67
2022/11/29 07:29:45;;;;;;;;;95.33;67.00;;;;;0.96;100.00;100297.91;6306552;20;3656547;-67
2022/11/29 07:32:37;;;;;;;;;75.00;55.00;;;;;1.23;100.00;100304.59;6304514;20;2875317;-67
2022/11/29 07:35:48;;;;;;;;;95.00;68.33;;;;;1.16;100.00;100301.19;6274871;20;3659617;-67
2022/11/29 07:38:56;;;;;;;;;145.50;116.50;;;;;1.32;100.00;100299.19;6307213;20;3704413;-67
2022/11/29 07:42:13;;;;;;;;;272.00;188.50;;;;;1.26;100.00;100293.97;6269704;20;4468991;-67
2022/11/29 07:45:00;;;;;;;;;291.25;188.50;;;;;1.56;100.00;100297.09;6306982;20;3725395;-67
2022/11/29 07:47:30;;;;;;;;;78.67;53.00;;;;;1.52;100.00;100307.69;6303173;20;3644039;-67
2022/11/29 07:50:05;;;;;;;;;100.67;67.67;;;;;1.37;100.00;100309.69;6304619;20;3684633;-67
2022/11/29 07:52:35;;;;;;;;;81.67;58.67;;;;;1.39;100.00;100305.25;6307432;20;3652323;-67
2022/11/29 07:55:05;;;;;;;;;97.33;61.33;;;;;1.27;100.00;100311.59;6268734;20;3659738;-67
2022/11/29 07:57:35;;;;;;;;;114.67;82.33;;;;;1.33;100.00;100310.66;6303211;20;3691911;-67
2022/11/29 08:00:07;;;;;;;;;97.75;69.25;;;;;1.45;100.00;100315.75;6272495;20;3684787;-67
2022/11/29 08:02:35;;;;;;;;;60.00;48.00;;;;;1.44;100.00;100309.59;6304633;20;2866971;-67
2022/11/29 08:05:06;;;;;;;;;62.00;41.67;;;;;1.42;100.00;100311.41;6273956;20;2878458;-67
2022/11/29 08:07:36;;;;;;;;;131.00;89.00;;;;;1.51;100.00;100310.38;6302899;20;1950324;-67
2022/11/29 08:10:12;;;;;;;;;87.33;65.33;;;;;1.50;100.00;100309.50;6267746;20;3641117;-68
2022/11/29 08:12:51;;;;;;;;;112.00;69.33;;;;;1.74;100.00;100310.03;6272136;20;3688864;-67
2022/11/29 08:15:23;;;;;;;;;107.33;74.33;;;;;1.67;100.00;100311.03;6275086;20;3688823;-68
2022/11/29 08:17:54;;;;;;;;;140.50;92.00;;;;;1.86;100.00;100316.91;6275563;20;3704459;-67
2022/11/29 08:20:24;;;;;;;;;108.75;74.25;;;;;1.62;100.00;100307.56;6275145;20;4445054;-68
2022/11/29 08:22:58;;;;;;;;;131.00;97.75;;;;;1.71;100.00;100303.03;6305701;20;4481494;-67
2022/11/29 08:25:28;;;;;;;;;97.33;70.67;;;;;1.72;100.00;100299.47;6304419;20;3678407;-67
2022/11/29 08:27:57;;;;;;;;;91.33;61.00;;;;;1.61;100.00;100300.53;6272607;20;3632706;-67
2022/11/29 08:30:27;;;;;;;;;80.67;57.33;;;;;1.82;100.00;100300.22;6305448;20;3659818;-68
2022/11/29 08:32:57;;;;;;;;;83.67;58.33;;;;;1.89;100.00;100306.25;6269072;20;3649212;-67
2022/11/29 08:35:26;;;;;;;;;70.67;42.00;;;;;1.88;100.00;100308.03;6306372;20;2889953;-67
2022/11/29 08:37:56;;;;;;;;;75.67;54.33;;;;;1.85;100.00;100304.59;6305844;20;3641938;-67
2022/11/29 08:40:25;;;;;;;;;70.00;50.67;;;;;1.74;100.00;100292.38;6305281;20;3641954;-68
2022/11/29 08:42:57;;;;;;;;;81.67;57.33;;;;;1.61;100.00;100295.25;6307971;20;3646114;-67
2022/11/29 08:45:27;;;;;;;;;65.33;51.00;;;;;1.81;100.00;100298.44;6304252;20;3625279;-67
2022/11/29 08:47:56;;;;;;;;;70.00;49.00;;;;;2.01;100.00;100305.19;6306813;20;2880502;-67
2022/11/29 08:50:25;;;;;;;;;70.00;53.33;;;;;1.80;100.00;100311.72;6273707;20;3626446;-68
2022/11/29 08:55:45;;;;;;;;;97.50;70.50;;;;;2.50;100.00;100304.31;6252631;20;1946255;-68
2022/11/29 08:58:15;;;;;;;;;78.00;53.33;;;;;2.04;100.00;100310.44;6269283;20;3644043;-68
2022/11/29 09:00:45;;;;;;;;;73.33;55.00;;;;;2.14;100.00;100299.66;6301910;20;3650269;-68
2022/11/29 09:06:14;;;;;;;;;79.67;54.33;;;;;2.17;100.00;100306.69;6270469;20;3644031;-68
2022/11/29 09:08:44;;;;;;;;;121.33;96.33;;;;;2.42;100.00;100297.41;6299735;20;3689927;-67
2022/11/29 09:11:19;;;;;;;;;56.67;41.67;;;;;2.00;100.00;100308.72;6267836;20;2867051;-67
2022/11/29 09:13:59;;;;;;;;;56.33;44.00;;;;;2.17;100.00;100309.34;6303272;20;2864958;-67
2022/11/29 09:16:36;;;;;;;;;74.33;52.00;;;;;2.08;100.00;100306.81;6301080;20;3638793;-67
2022/11/29 09:19:07;;;;;;;;;89.33;61.33;;;;;2.50;100.00;100297.25;6299839;20;3651403;-67
2022/11/29 09:21:36;;;;;;;;;69.33;48.33;;;;;2.27;100.00;100295.03;6299643;20;3636696;-67
2022/11/29 09:24:06;;;;;;;;;58.33;36.00;;;;;2.00;100.00;100306.09;6299938;20;2885753;-68
2022/11/29 09:26:39;;;;;;;;;59.00;34.67;;;;;2.06;100.00;100298.94;6302020;20;3632551;-68
2022/11/29 09:29:10;;;;;;;;;71.33;55.33;;;;;2.09;100.00;100305.94;6302223;20;2889958;-67
2022/11/29 09:31:38;;;;;;;;;68.00;49.00;;;;;2.28;100.00;100296.75;6300478;20;2589863;-66
2022/11/29 09:34:07;;;;;;;;;68.33;52.33;;;;;2.34;100.00;100294.03;6272495;20;3628386;-67
2022/11/29 09:36:37;;;;;;;;;75.00;53.67;;;;;1.86;100.00;100295.72;6299743;20;3654431;-68
2022/11/29 09:39:08;;;;;;;;;105.00;85.67;;;;;2.45;100.00;100291.19;6302514;20;3682572;-68
2022/11/29 09:42:16;;;;;;;;;75.33;55.00;;;;;2.10;100.00;100297.09;6302539;20;3651296;-68
2022/11/29 09:45:17;;;;;;;;;79.00;56.33;;;;;2.32;100.00;100295.81;6299564;20;3647165;-68
2022/11/29 09:48:31;;;;;;;;;79.67;57.67;;;;;2.18;100.00;100287.22;6299045;20;3641936;-67
2022/11/29 09:52:07;;;;;;;;;52.50;42.50;;;;;2.51;100.00;100285.75;6298849;20;2849263;-67
2022/11/29 09:54:48;;;;;;;;;25.33;11.33;;;;;2.39;100.00;100283.31;6264531;20;3547239;-68
2022/11/29 09:57:18;;;;;;;;;59.00;46.00;;;;;2.17;100.00;100285.50;6300400;20;2490928;-67
2022/11/29 09:59:51;;;;;;;;;58.00;46.00;;;;;2.31;100.00;100283.47;6268435;20;2849283;-66
2022/11/29 10:02:44;;;;;;;;;54.50;44.00;;;;;2.50;100.00;100284.00;6265950;20;2500290;-68
2022/11/29 10:05:45;;;;;;;;;61.00;42.67;;;;;2.53;100.00;100281.31;6267850;20;3635824;-67
2022/11/29 10:08:26;;;;;;;;;63.33;48.67;;;;;2.69;100.00;100276.56;6301257;20;2873379;-67
2022/11/29 10:11:22;;;;;;;;;62.50;53.00;;;;;2.55;100.00;100271.50;6303277;20;2866980;-67
2022/11/29 10:14:00;;;;;;;;;57.50;46.50;;;;;2.67;100.00;100270.41;6270876;20;2865892;-67
2022/11/29 10:16:59;;;;;;;;;48.00;35.00;;;;;2.52;100.00;100273.38;6267270;20;2856604;-67
2022/11/29 10:19:43;;;;;;;;;52.50;41.00;;;;;2.23;100.00;100263.31;6265463;20;2484441;-67
2022/11/29 10:22:54;;;;;;;;;74.67;53.00;;;;;2.68;100.00;100274.81;6269717;20;3645213;-68
2022/11/29 10:25:55;;;;;;;;;140.67;115.67;;;;;3.04;100.00;100261.69;6297570;20;3711729;-67
2022/11/29 10:28:35;;;;;;;;;63.67;46.00;;;;;3.03;100.00;100258.19;6263987;20;3620041;-66
2022/11/29 10:31:33;;;;;;;;;72.67;53.33;;;;;2.81;100.00;100256.88;6296964;20;3642037;-67
2022/11/29 10:34:23;;;;;;;;;72.67;52.00;;;;;3.15;100.00;100264.97;6300663;20;3629459;-67
2022/11/29 10:37:00;;;;;;;;;62.50;46.00;;;;;3.16;100.00;100268.50;6297511;20;2853408;-67
2022/11/29 10:39:52;;;;;;;;;67.33;54.00;;;;;3.30;100.00;100266.44;6262428;20;2877458;-67
2022/11/29 10:45:49;;;;;;;;;75.67;55.33;;;;;3.22;100.00;100263.94;6300865;20;2876406;-68
2022/11/29 10:48:24;;;;;;;;;69.33;51.33;;;;;2.99;100.00;100255.63;6298717;20;3631551;-68
2022/11/29 10:50:54;;;;;;;;;76.33;52.33;;;;;2.97;100.00;100250.34;6297672;20;3653418;-68
2022/11/29 10:53:31;;;;;;;;;58.50;46.50;;;;;2.85;100.00;100251.47;6300311;20;2856572;-68
2022/11/29 10:56:28;;;;;;;;;64.33;47.00;;;;;2.61;100.00;100254.66;6264015;20;3631521;-68
2022/11/29 10:59:07;;;;;;;;;74.33;51.67;;;;;2.86;100.00;100250.56;6299916;20;2878503;-68
2022/11/29 11:01:41;;;;;;;;;55.00;41.50;;;;;2.81;100.00;100247.13;6297122;20;2865913;-68
2022/11/29 11:04:29;;;;;;;;;78.33;56.00;;;;;2.86;100.00;100241.75;6266155;20;3655463;-68
2022/11/29 11:07:03;;;;;;;;;95.00;72.33;;;;;2.75;100.00;100241.97;6300674;20;3670050;-67
2022/11/29 11:09:49;;;;;;;;;74.00;52.00;;;;;2.71;100.00;100234.97;6258036;20;3649350;-68
2022/11/29 11:12:28;;;;;;;;;72.00;52.67;;;;;2.37;100.00;100243.63;6299337;20;3648192;-67
2022/11/29 11:15:23;;;;;;;;;65.67;47.00;;;;;2.35;100.00;100247.19;6298680;20;2892008;-67
2022/11/29 11:18:22;;;;;;;;;110.00;96.00;;;;;2.86;100.00;100245.25;6301147;20;3688818;-67
2022/11/29 11:20:57;;;;;;;;;98.50;80.75;;;;;3.03;100.00;100252.88;6270850;20;4443042;-68
2022/11/29 11:23:38;;;;;;;;;108.00;92.00;;;;;2.86;100.00;100252.34;6296350;20;3691911;-67
2022/11/29 11:26:13;;;;;;;;;93.33;75.33;;;;;2.71;100.00;100250.88;6268388;20;3666947;-68
2022/11/29 11:28:59;;;;;;;;;110.00;92.33;;;;;2.91;100.00;100244.31;6263407;20;3694057;-68
2022/11/29 11:31:39;;;;;;;;;111.67;93.33;;;;;2.64;100.00;100243.97;6263439;20;3699300;-68
2022/11/29 11:34:34;;;;;;;;;98.00;77.00;;;;;2.66;100.00;100242.19;6264881;20;3673716;-68
2022/11/29 11:37:15;;;;;;;;;191.00;148.50;;;;;2.91;100.00;100246.97;6261854;20;1951402;-68
2022/11/29 11:39:49;;;;;;;;;208.00;144.25;;;;;3.00;100.00;100252.06;6268832;20;4474229;-68
2022/11/29 11:42:36;;;;;;;;;177.00;136.00;;;;;2.98;100.00;100257.41;6260458;20;1944085;-67
2022/11/29 11:45:11;;;;;;;;;124.00;81.33;;;;;2.75;100.00;100257.88;6266672;20;3684710;-68
2022/11/29 11:47:59;;;;;;;;;61.67;42.00;;;;;2.89;100.00;100254.06;6269016;20;3619078;-67
2022/11/29 11:50:57;;;;;;;;;119.25;83.00;;;;;2.70;100.00;100254.44;6265745;20;3697188;-67
2022/11/29 11:53:35;;;;;;;;;188.00;129.00;;;;;2.57;100.00;100263.56;6262821;20;3682536;-68
2022/11/29 11:56:11;;;;;;;;;72.67;54.00;;;;;2.22;100.00;100258.94;6261342;20;2885951;-68
2022/11/29 11:58:53;;;;;;;;;63.00;51.00;;;;;2.27;100.00;100255.28;6298392;20;2859663;-69
2022/11/29 12:01:36;;;;;;;;;60.00;41.67;;;;;2.09;100.00;100245.91;6264380;20;2872432;-68
2022/11/29 12:04:20;;;;;;;;;57.00;41.33;;;;;2.39;100.00;100248.88;6289682;20;3631570;-67
2022/11/29 12:07:04;;;;;;;;;49.00;41.00;;;;;2.19;100.00;100246.63;6301393;20;2852380;-68
2022/11/29 12:09:51;;;;;;;;;71.33;54.00;;;;;2.40;100.00;100234.75;6271409;20;2893101;-68
2022/11/29 12:12:37;;;;;;;;;63.67;46.67;;;;;2.42;100.00;100228.50;6300617;20;2872131;-67
2022/11/29 12:15:36;;;;;;;;;46.67;32.33;;;;;2.30;100.00;100233.16;6304121;20;2877472;-67
2022/11/29 12:18:15;;;;;;;;;68.33;53.33;;;;;2.37;100.00;100235.66;6301348;20;3619051;-67
2022/11/29 12:21:23;;;;;;;;;132.00;112.67;;;;;2.03;100.00;100231.88;6295437;20;3703427;-68
2022/11/29 12:24:19;;;;;;;;;64.00;49.00;;;;;2.67;100.00;100238.59;6300908;20;2869075;-68
2022/11/29 12:26:49;;;;;;;;;55.67;41.00;;;;;2.19;100.00;100230.72;6269584;20;2875382;-66
2022/11/29 12:29:32;;;;;;;;;69.00;56.50;;;;;2.33;100.00;100236.63;6301115;20;2858665;-66